EZY59BL EGPH-EHAM
Flight info
| Callsign | EZY59BL |
|---|---|
| Flight time | N/A |
| Altitude | 25000 |
| Route | TLA Y96 OTBUN/N0446F370 DCT ERKIT N110 DOLAS L603 LAMSO |
| Aircraft | A320/M-SDE3FGHIRWY/LB1 |
Departure
| Time | 2026-04-25 22:19 |
|---|---|
| Airport | Edinburgh Airport (EGPH) |
Arrival
| Time | N/A |
|---|---|
| Airport | Amsterdam Airport Schiphol (EHAM) |
| Time | Latitude | Longitude | Altitude | Speed | Heading |
|---|---|---|---|---|---|
| 2026-04-25 21:54 | 55.94939 | -3.36355 | 109 ft | 0 kts | 148° |
| 2026-04-25 22:11 | 55.94951 | -3.36368 | 108 ft | 4 kts | 152° |
| 2026-04-25 22:11 | 55.94976 | -3.36389 | 106 ft | 4 kts | 162° |
| 2026-04-25 22:12 | 55.95002 | -3.36398 | 108 ft | 4 kts | 188° |
| 2026-04-25 22:12 | 55.95019 | -3.36385 | 109 ft | 0 kts | 238° |
| 2026-04-25 22:13 | 55.95019 | -3.36384 | 109 ft | 0 kts | 238° |
| 2026-04-25 22:15 | 55.95016 | -3.36393 | 109 ft | 3 kts | 238° |
| 2026-04-25 22:15 | 55.94992 | -3.36462 | 110 ft | 10 kts | 239° |
| 2026-04-25 22:15 | 55.94946 | -3.36603 | 109 ft | 16 kts | 240° |
| 2026-04-25 22:16 | 55.94921 | -3.36903 | 109 ft | 12 kts | 252° |
| 2026-04-25 22:16 | 55.94880 | -3.37022 | 109 ft | 10 kts | 239° |
| 2026-04-25 22:16 | 55.94846 | -3.37122 | 109 ft | 9 kts | 238° |
| 2026-04-25 22:16 | 55.94812 | -3.37228 | 109 ft | 11 kts | 243° |
| 2026-04-25 22:17 | 55.94763 | -3.37383 | 113 ft | 18 kts | 240° |
| 2026-04-25 22:17 | 55.94681 | -3.37623 | 115 ft | 27 kts | 237° |
| 2026-04-25 22:17 | 55.94568 | -3.37959 | 114 ft | 36 kts | 239° |
| 2026-04-25 22:17 | 55.94429 | -3.38353 | 116 ft | 37 kts | 239° |
| 2026-04-25 22:18 | 55.94311 | -3.38714 | 121 ft | 29 kts | 239° |
| 2026-04-25 22:18 | 55.94316 | -3.38895 | 123 ft | 13 kts | 321° |
| 2026-04-25 22:18 | 55.94396 | -3.38969 | 121 ft | 12 kts | 354° |
| 2026-04-25 22:18 | 55.94452 | -3.38858 | 119 ft | 15 kts | 60° |
| 2026-04-25 22:19 | 55.94590 | -3.38444 | 116 ft | 74 kts | 58° |
| 2026-04-25 22:19 | 55.94974 | -3.37322 | 113 ft | 136 kts | 59° |
| 2026-04-25 22:19 | 55.95512 | -3.35701 | 415 ft | 157 kts | 59° |
| 2026-04-25 22:19 | 55.96122 | -3.34093 | 1152 ft | 158 kts | 46° |
| 2026-04-25 22:20 | 55.97027 | -3.32845 | 1698 ft | 174 kts | 39° |
| 2026-04-25 22:20 | 55.97995 | -3.31447 | 2236 ft | 184 kts | 44° |
| 2026-04-25 22:20 | 55.98977 | -3.29858 | 2702 ft | 199 kts | 44° |
| 2026-04-25 22:20 | 56.00038 | -3.28084 | 2984 ft | 223 kts | 44° |
| 2026-04-25 22:21 | 56.01227 | -3.26056 | 3337 ft | 249 kts | 44° |
| 2026-04-25 22:21 | 56.02562 | -3.23821 | 3941 ft | 265 kts | 42° |
| 2026-04-25 22:21 | 56.03919 | -3.21597 | 4801 ft | 272 kts | 41° |
| 2026-04-25 22:21 | 56.05033 | -3.18860 | 5641 ft | 278 kts | 71° |
| 2026-04-25 22:22 | 56.05288 | -3.15384 | 6406 ft | 287 kts | 91° |
| 2026-04-25 22:22 | 56.05118 | -3.11752 | 7260 ft | 292 kts | 100° |
| 2026-04-25 22:22 | 56.04310 | -3.08485 | 8161 ft | 289 kts | 131° |
| 2026-04-25 22:22 | 56.02783 | -3.06179 | 9087 ft | 288 kts | 149° |
| 2026-04-25 22:23 | 56.01125 | -3.04247 | 9968 ft | 290 kts | 146° |
| 2026-04-25 22:23 | 55.99467 | -3.02107 | 10596 ft | 303 kts | 145° |
| 2026-04-25 22:23 | 55.97608 | -3.00090 | 10839 ft | 324 kts | 160° |
| 2026-04-25 22:23 | 55.95364 | -2.99011 | 11054 ft | 346 kts | 169° |
| 2026-04-25 22:24 | 55.92962 | -2.98124 | 11509 ft | 357 kts | 169° |
| 2026-04-25 22:24 | 55.90503 | -2.97239 | 12184 ft | 363 kts | 170° |
| 2026-04-25 22:24 | 55.88014 | -2.96350 | 12901 ft | 367 kts | 170° |
| 2026-04-25 22:24 | 55.85497 | -2.95451 | 13607 ft | 371 kts | 170° |
| 2026-04-25 22:25 | 55.82958 | -2.94545 | 14283 ft | 375 kts | 170° |
| 2026-04-25 22:25 | 55.80388 | -2.93627 | 14903 ft | 378 kts | 170° |
| 2026-04-25 22:25 | 55.77796 | -2.92696 | 15524 ft | 382 kts | 170° |
| 2026-04-25 22:25 | 55.75178 | -2.91750 | 16145 ft | 385 kts | 170° |
| 2026-04-25 22:26 | 55.72542 | -2.90793 | 16760 ft | 389 kts | 170° |
| 2026-04-25 22:26 | 55.69883 | -2.89823 | 17371 ft | 392 kts | 170° |
| 2026-04-25 22:26 | 55.67194 | -2.88837 | 17981 ft | 396 kts | 170° |
| 2026-04-25 22:26 | 55.64493 | -2.87844 | 18581 ft | 399 kts | 170° |
| 2026-04-25 22:27 | 55.61752 | -2.86833 | 19110 ft | 403 kts | 170° |
| 2026-04-25 22:27 | 55.58999 | -2.85820 | 19647 ft | 406 kts | 170° |
| 2026-04-25 22:27 | 55.56223 | -2.84798 | 20175 ft | 409 kts | 170° |
| 2026-04-25 22:27 | 55.53415 | -2.83766 | 20691 ft | 413 kts | 170° |
| 2026-04-25 22:28 | 55.50598 | -2.82733 | 21185 ft | 416 kts | 170° |
| 2026-04-25 22:28 | 55.47753 | -2.81691 | 21673 ft | 419 kts | 169° |
| 2026-04-25 22:28 | 55.44964 | -2.80165 | 22131 ft | 424 kts | 156° |
| 2026-04-25 22:28 | 55.42467 | -2.77328 | 22587 ft | 430 kts | 142° |
| 2026-04-25 22:29 | 55.40146 | -2.73996 | 23041 ft | 433 kts | 141° |
| 2026-04-25 22:29 | 55.37814 | -2.70607 | 23485 ft | 436 kts | 141° |
| 2026-04-25 22:29 | 55.35477 | -2.67194 | 23904 ft | 439 kts | 141° |
| 2026-04-25 22:30 | 55.30757 | -2.60309 | 24615 ft | 443 kts | 141° |
| 2026-04-25 22:30 | 55.28375 | -2.56849 | 24962 ft | 445 kts | 141° |
| 2026-04-25 22:30 | 55.25981 | -2.53384 | 25236 ft | 447 kts | 141° |
| 2026-04-25 22:30 | 55.24389 | -2.51085 | 25287 ft | 450 kts | 141° |
| 2026-04-25 22:31 | 55.21117 | -2.46374 | 25308 ft | 458 kts | 141° |
| 2026-04-25 22:31 | 55.18642 | -2.42816 | 25304 ft | 460 kts | 141° |
| 2026-04-25 22:31 | 55.16165 | -2.39268 | 25309 ft | 460 kts | 142° |
| 2026-04-25 22:31 | 55.13689 | -2.35729 | 25306 ft | 460 kts | 142° |
| 2026-04-25 22:32 | 55.11237 | -2.32229 | 25299 ft | 460 kts | 142° |
| 2026-04-25 22:32 | 55.08751 | -2.28687 | 25310 ft | 460 kts | 142° |
| 2026-04-25 22:32 | 55.06319 | -2.25226 | 25304 ft | 460 kts | 142° |
| 2026-04-25 22:32 | 55.03840 | -2.21698 | 25305 ft | 460 kts | 141° |
| 2026-04-25 22:33 | 55.01358 | -2.18170 | 25303 ft | 460 kts | 141° |
| 2026-04-25 22:33 | 54.98878 | -2.14650 | 25309 ft | 460 kts | 141° |
| 2026-04-25 22:33 | 54.96396 | -2.11133 | 25312 ft | 460 kts | 141° |
| 2026-04-25 22:33 | 54.93907 | -2.07614 | 25316 ft | 460 kts | 142° |
| 2026-04-25 22:34 | 54.91420 | -2.04104 | 25308 ft | 460 kts | 141° |
| 2026-04-25 22:34 | 54.88936 | -2.00603 | 25307 ft | 460 kts | 142° |
| 2026-04-25 22:34 | 54.86449 | -1.97106 | 25315 ft | 460 kts | 142° |
| 2026-04-25 22:34 | 54.83951 | -1.93601 | 25314 ft | 460 kts | 142° |
| 2026-04-25 22:35 | 54.81461 | -1.90110 | 25309 ft | 460 kts | 142° |
| 2026-04-25 22:35 | 54.78971 | -1.86629 | 25310 ft | 460 kts | 142° |
| 2026-04-25 22:35 | 54.76473 | -1.83148 | 25302 ft | 460 kts | 142° |
| 2026-04-25 22:35 | 54.73975 | -1.79672 | 25309 ft | 460 kts | 142° |
| 2026-04-25 22:36 | 54.72328 | -1.77379 | 25314 ft | 460 kts | 142° |
| 2026-04-25 22:36 | 54.69850 | -1.73928 | 25318 ft | 460 kts | 142° |
| 2026-04-25 22:36 | 54.67340 | -1.70433 | 25323 ft | 460 kts | 141° |
| 2026-04-25 22:36 | 54.64848 | -1.66967 | 25328 ft | 460 kts | 142° |
| 2026-04-25 22:37 | 54.62355 | -1.63508 | 25330 ft | 460 kts | 142° |
| 2026-04-25 22:37 | 54.59857 | -1.60055 | 25340 ft | 460 kts | 142° |
| 2026-04-25 22:37 | 54.57359 | -1.56615 | 25343 ft | 460 kts | 142° |
| 2026-04-25 22:37 | 54.54858 | -1.53178 | 25346 ft | 460 kts | 142° |
| 2026-04-25 22:38 | 54.52358 | -1.49749 | 25335 ft | 460 kts | 142° |
| 2026-04-25 22:38 | 54.49852 | -1.46320 | 25340 ft | 460 kts | 142° |
| 2026-04-25 22:38 | 54.47353 | -1.42899 | 25341 ft | 460 kts | 142° |
| 2026-04-25 22:38 | 54.44849 | -1.39467 | 25342 ft | 460 kts | 142° |
| 2026-04-25 22:39 | 54.42381 | -1.36087 | 25333 ft | 460 kts | 142° |
| 2026-04-25 22:39 | 54.39847 | -1.32624 | 25334 ft | 460 kts | 142° |
| 2026-04-25 22:39 | 54.37340 | -1.29213 | 25331 ft | 460 kts | 142° |
| 2026-04-25 22:39 | 54.34865 | -1.25851 | 25319 ft | 460 kts | 142° |
| 2026-04-25 22:40 | 54.32361 | -1.22457 | 25308 ft | 460 kts | 142° |
| 2026-04-25 22:40 | 54.29845 | -1.19054 | 25312 ft | 460 kts | 142° |
| 2026-04-25 22:40 | 54.27333 | -1.15657 | 25312 ft | 460 kts | 142° |
| 2026-04-25 22:40 | 54.24819 | -1.12255 | 25317 ft | 460 kts | 142° |
| 2026-04-25 22:41 | 54.22306 | -1.08863 | 25318 ft | 460 kts | 142° |
| 2026-04-25 22:41 | 54.19791 | -1.05480 | 25318 ft | 460 kts | 142° |
| 2026-04-25 22:41 | 54.17268 | -1.02097 | 25316 ft | 460 kts | 142° |
| 2026-04-25 22:41 | 54.14752 | -0.98726 | 25317 ft | 460 kts | 142° |
| 2026-04-25 22:42 | 54.12234 | -0.95352 | 25315 ft | 460 kts | 142° |
| 2026-04-25 22:42 | 54.09720 | -0.91987 | 25315 ft | 460 kts | 142° |
| 2026-04-25 22:42 | 54.07205 | -0.88622 | 25314 ft | 460 kts | 142° |
| 2026-04-25 22:42 | 54.04686 | -0.85253 | 25312 ft | 460 kts | 142° |
| 2026-04-25 22:43 | 54.02156 | -0.81911 | 25313 ft | 460 kts | 143° |
| 2026-04-25 22:43 | 53.99573 | -0.78695 | 25318 ft | 460 kts | 145° |
| 2026-04-25 22:43 | 53.96938 | -0.75592 | 25317 ft | 460 kts | 146° |
| 2026-04-25 22:43 | 53.94282 | -0.72561 | 25318 ft | 460 kts | 147° |
| 2026-04-25 22:44 | 53.91614 | -0.69546 | 25320 ft | 461 kts | 147° |
| 2026-04-25 22:44 | 53.88950 | -0.66522 | 25320 ft | 461 kts | 146° |
| 2026-04-25 22:44 | 53.86297 | -0.63477 | 25320 ft | 461 kts | 146° |
| 2026-04-25 22:44 | 53.83652 | -0.60410 | 25318 ft | 461 kts | 146° |
| 2026-04-25 22:45 | 53.81014 | -0.57333 | 25326 ft | 461 kts | 146° |
| 2026-04-25 22:45 | 53.79466 | -0.55493 | 25323 ft | 461 kts | 142° |
| 2026-04-25 22:45 | 53.77151 | -0.51756 | 25321 ft | 461 kts | 131° |
| 2026-04-25 22:45 | 53.75052 | -0.47657 | 25322 ft | 461 kts | 130° |
| 2026-04-25 22:46 | 53.72960 | -0.43561 | 25321 ft | 461 kts | 130° |
| 2026-04-25 22:46 | 53.70880 | -0.39480 | 25326 ft | 460 kts | 130° |
| 2026-04-25 22:46 | 53.68795 | -0.35386 | 25327 ft | 460 kts | 130° |
| 2026-04-25 22:46 | 53.66704 | -0.31282 | 25328 ft | 460 kts | 130° |
| 2026-04-25 22:47 | 53.64646 | -0.27246 | 25328 ft | 460 kts | 130° |
| 2026-04-25 22:47 | 53.62559 | -0.23160 | 25326 ft | 460 kts | 130° |
| 2026-04-25 22:47 | 53.60471 | -0.19080 | 25323 ft | 459 kts | 130° |
| 2026-04-25 22:47 | 53.58381 | -0.15006 | 25321 ft | 459 kts | 130° |
| 2026-04-25 22:48 | 53.56297 | -0.10951 | 25316 ft | 459 kts | 130° |
| 2026-04-25 22:48 | 53.54206 | -0.06890 | 25312 ft | 459 kts | 130° |
| 2026-04-25 22:48 | 53.52117 | -0.02839 | 25309 ft | 459 kts | 130° |
| 2026-04-25 22:48 | 53.50028 | 0.01206 | 25297 ft | 459 kts | 130° |
| 2026-04-25 22:49 | 53.47927 | 0.05264 | 25292 ft | 459 kts | 130° |
| 2026-04-25 22:49 | 53.45833 | 0.09296 | 25293 ft | 459 kts | 130° |
| 2026-04-25 22:49 | 53.43731 | 0.13341 | 25288 ft | 460 kts | 130° |
| 2026-04-25 22:49 | 53.41628 | 0.17384 | 25295 ft | 460 kts | 130° |
| 2026-04-25 22:50 | 53.39525 | 0.21424 | 25295 ft | 460 kts | 130° |
| 2026-04-25 22:50 | 53.37419 | 0.25466 | 25298 ft | 460 kts | 130° |
| 2026-04-25 22:50 | 53.35309 | 0.29506 | 25299 ft | 461 kts | 130° |
| 2026-04-25 22:50 | 53.33201 | 0.33536 | 25299 ft | 461 kts | 130° |
| 2026-04-25 22:51 | 53.31086 | 0.37567 | 25291 ft | 461 kts | 131° |
| 2026-04-25 22:51 | 53.28973 | 0.41584 | 25300 ft | 461 kts | 131° |
| 2026-04-25 22:51 | 53.26859 | 0.45602 | 25288 ft | 461 kts | 131° |
| 2026-04-25 22:51 | 53.24725 | 0.49652 | 25288 ft | 461 kts | 131° |
| 2026-04-25 22:52 | 53.22624 | 0.53631 | 25297 ft | 461 kts | 131° |
| 2026-04-25 22:52 | 53.20502 | 0.57642 | 25296 ft | 461 kts | 131° |
| 2026-04-25 22:52 | 53.18382 | 0.61646 | 25296 ft | 461 kts | 131° |
| 2026-04-25 22:52 | 53.16979 | 0.64295 | 25302 ft | 461 kts | 131° |
| 2026-04-25 22:53 | 53.14141 | 0.69648 | 25302 ft | 461 kts | 131° |
| 2026-04-25 22:53 | 53.12048 | 0.73587 | 25303 ft | 461 kts | 131° |
| 2026-04-25 22:53 | 53.09890 | 0.77635 | 25304 ft | 461 kts | 131° |
| 2026-04-25 22:53 | 53.07759 | 0.81626 | 25304 ft | 461 kts | 131° |
| 2026-04-25 22:54 | 53.05628 | 0.85608 | 25304 ft | 461 kts | 131° |
| 2026-04-25 22:54 | 53.03491 | 0.89601 | 25305 ft | 461 kts | 131° |
| 2026-04-25 22:54 | 53.01363 | 0.93590 | 25305 ft | 461 kts | 130° |
| 2026-04-25 22:54 | 52.99475 | 0.97894 | 25307 ft | 461 kts | 121° |
| 2026-04-25 22:55 | 52.98045 | 1.02498 | 25295 ft | 445 kts | 112° |
| 2026-04-25 22:55 | 52.97083 | 1.07244 | 25307 ft | 424 kts | 103° |
| 2026-04-25 22:55 | 52.96506 | 1.11927 | 25306 ft | 406 kts | 99° |
| 2026-04-25 22:55 | 52.95979 | 1.16552 | 25307 ft | 401 kts | 100° |
| 2026-04-25 22:56 | 52.95457 | 1.21078 | 25309 ft | 399 kts | 100° |
| 2026-04-25 22:56 | 52.94938 | 1.25532 | 25310 ft | 399 kts | 100° |
| 2026-04-25 22:56 | 52.94409 | 1.30043 | 25307 ft | 398 kts | 100° |
| 2026-04-25 22:56 | 52.93872 | 1.34609 | 25300 ft | 398 kts | 100° |
| 2026-04-25 22:57 | 52.93348 | 1.39050 | 25299 ft | 398 kts | 100° |
| 2026-04-25 22:57 | 52.92814 | 1.43561 | 25303 ft | 398 kts | 100° |
| 2026-04-25 22:57 | 52.92278 | 1.48067 | 25305 ft | 399 kts | 100° |
| 2026-04-25 22:57 | 52.91735 | 1.52635 | 25304 ft | 398 kts | 100° |
| 2026-04-25 22:58 | 52.91206 | 1.57074 | 25302 ft | 398 kts | 101° |
| 2026-04-25 22:58 | 52.90668 | 1.61580 | 25306 ft | 398 kts | 101° |
| 2026-04-25 22:58 | 52.90132 | 1.66077 | 25306 ft | 398 kts | 101° |
| 2026-04-25 22:58 | 52.89593 | 1.70581 | 25299 ft | 398 kts | 101° |
| 2026-04-25 22:59 | 52.89051 | 1.75080 | 25297 ft | 398 kts | 101° |
| 2026-04-25 22:59 | 52.88507 | 1.79563 | 25300 ft | 399 kts | 101° |
| 2026-04-25 22:59 | 52.87956 | 1.84077 | 25302 ft | 399 kts | 101° |
| 2026-04-25 22:59 | 52.87406 | 1.88566 | 25305 ft | 399 kts | 101° |
| 2026-04-25 23:00 | 52.86855 | 1.93064 | 25302 ft | 399 kts | 101° |
| 2026-04-25 23:00 | 52.86302 | 1.97565 | 25299 ft | 399 kts | 101° |
| 2026-04-25 23:00 | 52.85747 | 2.02065 | 25304 ft | 399 kts | 101° |
| 2026-04-25 23:00 | 52.85195 | 2.06556 | 25305 ft | 399 kts | 101° |
| 2026-04-25 23:01 | 52.84638 | 2.11058 | 25306 ft | 399 kts | 101° |
| 2026-04-25 23:01 | 52.84073 | 2.15544 | 25301 ft | 399 kts | 102° |
| 2026-04-25 23:01 | 52.83429 | 2.20012 | 25301 ft | 399 kts | 104° |
| 2026-04-25 23:01 | 52.82709 | 2.24436 | 25299 ft | 399 kts | 105° |
| 2026-04-25 23:02 | 52.81944 | 2.28872 | 24948 ft | 401 kts | 105° |
| 2026-04-25 23:02 | 52.81174 | 2.33274 | 24711 ft | 396 kts | 106° |
| 2026-04-25 23:02 | 52.80415 | 2.37632 | 24472 ft | 393 kts | 105° |
| 2026-04-25 23:02 | 52.79669 | 2.41963 | 24235 ft | 391 kts | 105° |
| 2026-04-25 23:03 | 52.78937 | 2.46274 | 24003 ft | 389 kts | 105° |
| 2026-04-25 23:03 | 52.78214 | 2.50566 | 23751 ft | 387 kts | 105° |
| 2026-04-25 23:03 | 52.77497 | 2.54847 | 23476 ft | 385 kts | 105° |
| 2026-04-25 23:03 | 52.76783 | 2.59094 | 23195 ft | 384 kts | 105° |
| 2026-04-25 23:04 | 52.76067 | 2.63338 | 22930 ft | 383 kts | 105° |
| 2026-04-25 23:04 | 52.75593 | 2.66139 | 22750 ft | 382 kts | 105° |
| 2026-04-25 23:04 | 52.74637 | 2.71766 | 22396 ft | 380 kts | 105° |
| 2026-04-25 23:04 | 52.73917 | 2.75961 | 22126 ft | 379 kts | 105° |
| 2026-04-25 23:05 | 52.73196 | 2.80145 | 21872 ft | 378 kts | 105° |
| 2026-04-25 23:05 | 52.72479 | 2.84311 | 21608 ft | 377 kts | 105° |
| 2026-04-25 23:05 | 52.71763 | 2.88472 | 21346 ft | 376 kts | 105° |
| 2026-04-25 23:05 | 52.71053 | 2.92609 | 21091 ft | 375 kts | 105° |
| 2026-04-25 23:06 | 52.70340 | 2.96748 | 20809 ft | 375 kts | 105° |
| 2026-04-25 23:06 | 52.69625 | 3.00883 | 20238 ft | 376 kts | 105° |
| 2026-04-25 23:06 | 52.68907 | 3.05025 | 19677 ft | 377 kts | 105° |
| 2026-04-25 23:06 | 52.68192 | 3.09131 | 19400 ft | 369 kts | 106° |
| 2026-04-25 23:07 | 52.67488 | 3.13167 | 19016 ft | 366 kts | 106° |
| 2026-04-25 23:07 | 52.66784 | 3.17190 | 18598 ft | 364 kts | 106° |
| 2026-04-25 23:07 | 52.66086 | 3.21176 | 18131 ft | 362 kts | 106° |
| 2026-04-25 23:07 | 52.65390 | 3.25150 | 17676 ft | 360 kts | 106° |
| 2026-04-25 23:08 | 52.64696 | 3.29097 | 17239 ft | 358 kts | 106° |
| 2026-04-25 23:08 | 52.64004 | 3.33015 | 16810 ft | 356 kts | 106° |
| 2026-04-25 23:08 | 52.63315 | 3.36913 | 16389 ft | 354 kts | 106° |
| 2026-04-25 23:08 | 52.62628 | 3.40791 | 15982 ft | 352 kts | 106° |
| 2026-04-25 23:09 | 52.61942 | 3.44649 | 15573 ft | 350 kts | 105° |
| 2026-04-25 23:09 | 52.61259 | 3.48477 | 15185 ft | 348 kts | 105° |
| 2026-04-25 23:09 | 52.60575 | 3.52300 | 14786 ft | 347 kts | 105° |
| 2026-04-25 23:09 | 52.59896 | 3.56095 | 14397 ft | 345 kts | 105° |
| 2026-04-25 23:10 | 52.59220 | 3.59867 | 14009 ft | 343 kts | 105° |
| 2026-04-25 23:10 | 52.58547 | 3.63619 | 13588 ft | 341 kts | 105° |
| 2026-04-25 23:10 | 52.57877 | 3.67348 | 13175 ft | 338 kts | 105° |
| 2026-04-25 23:10 | 52.57215 | 3.71034 | 12856 ft | 333 kts | 105° |
| 2026-04-25 23:11 | 52.56558 | 3.74678 | 12225 ft | 337 kts | 105° |
| 2026-04-25 23:11 | 52.55877 | 3.78448 | 11246 ft | 352 kts | 105° |
| 2026-04-25 23:11 | 52.55172 | 3.82337 | 10557 ft | 356 kts | 105° |
| 2026-04-25 23:11 | 52.54464 | 3.86230 | 9996 ft | 354 kts | 105° |
| 2026-04-25 23:12 | 52.53759 | 3.90085 | 9418 ft | 351 kts | 105° |
| 2026-04-25 23:12 | 52.53058 | 3.93916 | 8862 ft | 348 kts | 105° |
| 2026-04-25 23:12 | 52.52318 | 3.97681 | 8299 ft | 346 kts | 110° |
| 2026-04-25 23:12 | 52.51442 | 4.01348 | 7829 ft | 342 kts | 110° |
| 2026-04-25 23:13 | 52.50573 | 4.04928 | 7707 ft | 343 kts | 110° |
| 2026-04-25 23:13 | 52.49682 | 4.08570 | 7579 ft | 344 kts | 110° |
| 2026-04-25 23:13 | 52.48791 | 4.12207 | 7464 ft | 343 kts | 110° |
| 2026-04-25 23:13 | 52.47899 | 4.15826 | 7335 ft | 342 kts | 111° |
| 2026-04-25 23:14 | 52.47007 | 4.19442 | 7212 ft | 341 kts | 111° |